sensor_id;sensor_type;location;lat;lon;timestamp;temperature;humidity
38458;DHT22;24239;48.058;10.486;2023-06-05T00:00:14;12.70;99.90
38458;DHT22;24239;48.058;10.486;2023-06-05T00:02:40;12.60;99.90
38458;DHT22;24239;48.058;10.486;2023-06-05T00:05:06;12.50;99.90
38458;DHT22;24239;48.058;10.486;2023-06-05T00:07:36;12.60;99.90
38458;DHT22;24239;48.058;10.486;2023-06-05T00:10:06;12.50;99.90
38458;DHT22;24239;48.058;10.486;2023-06-05T00:12:33;12.50;99.90
38458;DHT22;24239;48.058;10.486;2023-06-05T00:15:02;12.40;99.90
38458;DHT22;24239;48.058;10.486;2023-06-05T00:17:34;12.40;99.90
38458;DHT22;24239;48.058;10.486;2023-06-05T00:20:04;12.40;99.90
38458;DHT22;24239;48.058;10.486;2023-06-05T00:22:37;12.30;99.90
38458;DHT22;24239;48.058;10.486;2023-06-05T00:25:07;12.30;99.90
38458;DHT22;24239;48.058;10.486;2023-06-05T00:27:34;12.30;99.90
38458;DHT22;24239;48.058;10.486;2023-06-05T00:30:00;12.20;99.90
38458;DHT22;24239;48.058;10.486;2023-06-05T00:32:27;12.30;99.90
38458;DHT22;24239;48.058;10.486;2023-06-05T00:34:57;12.20;99.90
38458;DHT22;24239;48.058;10.486;2023-06-05T00:37:26;12.20;99.90
38458;DHT22;24239;48.058;10.486;2023-06-05T00:39:54;12.20;99.90
38458;DHT22;24239;48.058;10.486;2023-06-05T00:42:21;12.20;99.90
38458;DHT22;24239;48.058;10.486;2023-06-05T00:44:48;12.10;99.90
38458;DHT22;24239;48.058;10.486;2023-06-05T00:47:14;12.20;99.90
38458;DHT22;24239;48.058;10.486;2023-06-05T00:49:42;12.20;99.90
38458;DHT22;24239;48.058;10.486;2023-06-05T00:52:11;12.20;99.90
38458;DHT22;24239;48.058;10.486;2023-06-05T00:54:40;12.20;99.90
38458;DHT22;24239;48.058;10.486;2023-06-05T00:57:09;12.20;99.90
38458;DHT22;24239;48.058;10.486;2023-06-05T00:59:37;12.20;99.90
38458;DHT22;24239;48.058;10.486;2023-06-05T01:02:12;12.30;99.90
38458;DHT22;24239;48.058;10.486;2023-06-05T01:04:40;12.30;99.90
38458;DHT22;24239;48.058;10.486;2023-06-05T01:07:15;12.30;99.90
38458;DHT22;24239;48.058;10.486;2023-06-05T01:09:42;12.30;99.90
38458;DHT22;24239;48.058;10.486;2023-06-05T01:14:42;12.30;99.90
38458;DHT22;24239;48.058;10.486;2023-06-05T01:17:11;12.20;99.90
38458;DHT22;24239;48.058;10.486;2023-06-05T01:19:37;12.30;99.90
38458;DHT22;24239;48.058;10.486;2023-06-05T01:22:05;12.20;99.90
38458;DHT22;24239;48.058;10.486;2023-06-05T01:24:32;12.20;99.90
38458;DHT22;24239;48.058;10.486;2023-06-05T01:27:02;12.20;99.90
38458;DHT22;24239;48.058;10.486;2023-06-05T01:32:21;12.10;99.90
38458;DHT22;24239;48.058;10.486;2023-06-05T01:34:48;12.10;99.90
38458;DHT22;24239;48.058;10.486;2023-06-05T01:37:19;12.10;99.90
38458;DHT22;24239;48.058;10.486;2023-06-05T01:39:50;12.00;99.90
38458;DHT22;24239;48.058;10.486;2023-06-05T01:42:18;12.00;99.90
38458;DHT22;24239;48.058;10.486;2023-06-05T01:44:45;12.00;99.90
38458;DHT22;24239;48.058;10.486;2023-06-05T01:47:12;12.00;99.90
38458;DHT22;24239;48.058;10.486;2023-06-05T01:49:39;11.90;99.90
38458;DHT22;24239;48.058;10.486;2023-06-05T01:52:08;11.90;99.90
38458;DHT22;24239;48.058;10.486;2023-06-05T01:54:34;11.80;99.90
38458;DHT22;24239;48.058;10.486;2023-06-05T01:56:59;11.80;99.90
38458;DHT22;24239;48.058;10.486;2023-06-05T01:59:26;11.70;99.90
38458;DHT22;24239;48.058;10.486;2023-06-05T02:01:52;11.70;99.90
38458;DHT22;24239;48.058;10.486;2023-06-05T02:04:19;11.60;99.90
38458;DHT22;24239;48.058;10.486;2023-06-05T02:06:47;11.70;99.90
38458;DHT22;24239;48.058;10.486;2023-06-05T02:09:14;11.70;99.90
38458;DHT22;24239;48.058;10.486;2023-06-05T02:11:44;11.70;99.90
38458;DHT22;24239;48.058;10.486;2023-06-05T02:14:13;11.70;99.90
38458;DHT22;24239;48.058;10.486;2023-06-05T02:16:41;11.60;99.90
38458;DHT22;24239;48.058;10.486;2023-06-05T02:19:13;11.50;99.90
38458;DHT22;24239;48.058;10.486;2023-06-05T02:21:41;11.50;99.90
38458;DHT22;24239;48.058;10.486;2023-06-05T02:24:07;11.40;99.90
38458;DHT22;24239;48.058;10.486;2023-06-05T02:26:33;11.40;99.90
38458;DHT22;24239;48.058;10.486;2023-06-05T02:28:59;11.30;99.90
38458;DHT22;24239;48.058;10.486;2023-06-05T02:31:25;11.30;99.90
38458;DHT22;24239;48.058;10.486;2023-06-05T02:33:55;11.20;99.90
38458;DHT22;24239;48.058;10.486;2023-06-05T02:36:22;11.10;99.90
38458;DHT22;24239;48.058;10.486;2023-06-05T02:38:50;11.10;99.90
38458;DHT22;24239;48.058;10.486;2023-06-05T02:41:16;11.10;99.90
38458;DHT22;24239;48.058;10.486;2023-06-05T02:43:45;11.00;99.90
38458;DHT22;24239;48.058;10.486;2023-06-05T02:46:12;11.00;99.90
38458;DHT22;24239;48.058;10.486;2023-06-05T02:48:39;11.00;99.90
38458;DHT22;24239;48.058;10.486;2023-06-05T02:51:07;11.00;99.90
38458;DHT22;24239;48.058;10.486;2023-06-05T02:53:37;11.00;99.90
38458;DHT22;24239;48.058;10.486;2023-06-05T02:56:05;10.90;99.90
38458;DHT22;24239;48.058;10.486;2023-06-05T02:58:35;10.90;99.90
38458;DHT22;24239;48.058;10.486;2023-06-05T03:01:04;10.90;99.90
38458;DHT22;24239;48.058;10.486;2023-06-05T03:03:36;10.90;99.90
38458;DHT22;24239;48.058;10.486;2023-06-05T03:06:04;10.80;99.90
38458;DHT22;24239;48.058;10.486;2023-06-05T03:08:33;10.80;99.90
38458;DHT22;24239;48.058;10.486;2023-06-05T03:11:02;10.70;99.90
38458;DHT22;24239;48.058;10.486;2023-06-05T03:13:30;10.70;99.90
38458;DHT22;24239;48.058;10.486;2023-06-05T03:15:58;10.70;99.90
38458;DHT22;24239;48.058;10.486;2023-06-05T03:18:29;10.70;99.90
38458;DHT22;24239;48.058;10.486;2023-06-05T03:20:59;10.70;99.90
38458;DHT22;24239;48.058;10.486;2023-06-05T03:23:25;10.70;99.90
38458;DHT22;24239;48.058;10.486;2023-06-05T03:25:56;10.70;99.90
38458;DHT22;24239;48.058;10.486;2023-06-05T03:28:24;10.70;99.90
38458;DHT22;24239;48.058;10.486;2023-06-05T03:30:50;10.70;99.90
38458;DHT22;24239;48.058;10.486;2023-06-05T03:33:17;10.70;99.90
38458;DHT22;24239;48.058;10.486;2023-06-05T03:35:43;10.60;99.90
38458;DHT22;24239;48.058;10.486;2023-06-05T03:38:14;10.50;99.90
38458;DHT22;24239;48.058;10.486;2023-06-05T03:40:42;10.60;99.90
38458;DHT22;24239;48.058;10.486;2023-06-05T03:43:11;10.50;99.90
38458;DHT22;24239;48.058;10.486;2023-06-05T03:45:37;10.60;99.90
38458;DHT22;24239;48.058;10.486;2023-06-05T03:48:08;10.60;99.90
38458;DHT22;24239;48.058;10.486;2023-06-05T03:50:39;10.60;99.90
38458;DHT22;24239;48.058;10.486;2023-06-05T03:53:06;10.70;99.90
38458;DHT22;24239;48.058;10.486;2023-06-05T03:55:37;10.70;99.90
38458;DHT22;24239;48.058;10.486;2023-06-05T03:58:08;10.90;99.90
38458;DHT22;24239;48.058;10.486;2023-06-05T04:00:35;10.90;99.90
38458;DHT22;24239;48.058;10.486;2023-06-05T04:03:03;10.90;99.90
38458;DHT22;24239;48.058;10.486;2023-06-05T04:05:32;11.10;99.90
38458;DHT22;24239;48.058;10.486;2023-06-05T04:08:01;11.60;99.90
38458;DHT22;24239;48.058;10.486;2023-06-05T04:10:28;12.00;99.90
38458;DHT22;24239;48.058;10.486;2023-06-05T04:12:55;12.30;99.90
38458;DHT22;24239;48.058;10.486;2023-06-05T04:15:24;12.50;99.90
38458;DHT22;24239;48.058;10.486;2023-06-05T04:17:56;12.80;99.90
38458;DHT22;24239;48.058;10.486;2023-06-05T04:20:23;13.10;99.90
38458;DHT22;24239;48.058;10.486;2023-06-05T04:22:51;13.70;99.90
38458;DHT22;24239;48.058;10.486;2023-06-05T04:25:20;14.20;99.90
38458;DHT22;24239;48.058;10.486;2023-06-05T04:27:47;14.80;99.90
38458;DHT22;24239;48.058;10.486;2023-06-05T04:30:16;15.20;99.90
38458;DHT22;24239;48.058;10.486;2023-06-05T04:32:45;15.40;99.90
38458;DHT22;24239;48.058;10.486;2023-06-05T04:35:21;15.70;99.90
38458;DHT22;24239;48.058;10.486;2023-06-05T04:37:49;15.70;99.90
38458;DHT22;24239;48.058;10.486;2023-06-05T04:40:18;15.90;99.90
38458;DHT22;24239;48.058;10.486;2023-06-05T04:42:47;16.20;99.90
38458;DHT22;24239;48.058;10.486;2023-06-05T04:45:14;16.60;99.90
38458;DHT22;24239;48.058;10.486;2023-06-05T04:47:41;17.10;99.90
38458;DHT22;24239;48.058;10.486;2023-06-05T04:50:21;17.40;99.80
38458;DHT22;24239;48.058;10.486;2023-06-05T04:52:48;17.70;99.20
38458;DHT22;24239;48.058;10.486;2023-06-05T04:55:15;18.10;98.60
38458;DHT22;24239;48.058;10.486;2023-06-05T04:57:43;18.40;98.00
38458;DHT22;24239;48.058;10.486;2023-06-05T05:00:11;18.40;97.70
38458;DHT22;24239;48.058;10.486;2023-06-05T05:02:39;18.30;97.60
38458;DHT22;24239;48.058;10.486;2023-06-05T05:05:05;17.50;98.30
38458;DHT22;24239;48.058;10.486;2023-06-05T05:07:32;16.80;99.40
38458;DHT22;24239;48.058;10.486;2023-06-05T05:10:03;16.50;99.90
38458;DHT22;24239;48.058;10.486;2023-06-05T05:12:32;16.50;99.90
38458;DHT22;24239;48.058;10.486;2023-06-05T05:15:02;17.00;99.90
38458;DHT22;24239;48.058;10.486;2023-06-05T05:17:31;17.70;99.40
38458;DHT22;24239;48.058;10.486;2023-06-05T05:20:01;18.10;98.30
38458;DHT22;24239;48.058;10.486;2023-06-05T05:22:30;18.20;98.50
38458;DHT22;24239;48.058;10.486;2023-06-05T05:24:57;18.50;98.40
38458;DHT22;24239;48.058;10.486;2023-06-05T05:27:27;18.80;98.10
38458;DHT22;24239;48.058;10.486;2023-06-05T05:29:54;19.10;97.90
38458;DHT22;24239;48.058;10.486;2023-06-05T05:32:20;19.70;97.60
38458;DHT22;24239;48.058;10.486;2023-06-05T05:34:49;20.10;97.00
38458;DHT22;24239;48.058;10.486;2023-06-05T05:37:18;20.60;96.50
38458;DHT22;24239;48.058;10.486;2023-06-05T05:39:47;20.70;95.90
38458;DHT22;24239;48.058;10.486;2023-06-05T05:42:15;21.00;95.70
38458;DHT22;24239;48.058;10.486;2023-06-05T05:44:42;21.10;95.10
38458;DHT22;24239;48.058;10.486;2023-06-05T05:47:09;20.70;96.00
38458;DHT22;24239;48.058;10.486;2023-06-05T05:49:36;21.00;95.00
38458;DHT22;24239;48.058;10.486;2023-06-05T05:52:04;21.10;94.90
38458;DHT22;24239;48.058;10.486;2023-06-05T05:54:30;21.00;95.10
38458;DHT22;24239;48.058;10.486;2023-06-05T05:56:56;21.30;94.90
38458;DHT22;24239;48.058;10.486;2023-06-05T05:59:22;21.20;94.80
38458;DHT22;24239;48.058;10.486;2023-06-05T06:01:48;21.00;95.10
38458;DHT22;24239;48.058;10.486;2023-06-05T06:04:17;21.10;95.40
38458;DHT22;24239;48.058;10.486;2023-06-05T06:06:44;21.10;95.40
38458;DHT22;24239;48.058;10.486;2023-06-05T06:09:14;21.20;95.40
38458;DHT22;24239;48.058;10.486;2023-06-05T06:11:41;21.20;95.20
38458;DHT22;24239;48.058;10.486;2023-06-05T06:14:09;21.00;95.80
38458;DHT22;24239;48.058;10.486;2023-06-05T06:16:38;21.00;95.70
38458;DHT22;24239;48.058;10.486;2023-06-05T06:19:07;21.20;95.70
38458;DHT22;24239;48.058;10.486;2023-06-05T06:21:42;20.70;96.20
38458;DHT22;24239;48.058;10.486;2023-06-05T06:24:09;19.90;97.20
38458;DHT22;24239;48.058;10.486;2023-06-05T06:26:39;19.20;98.30
38458;DHT22;24239;48.058;10.486;2023-06-05T06:29:06;18.60;99.70
38458;DHT22;24239;48.058;10.486;2023-06-05T06:31:35;18.20;99.90
38458;DHT22;24239;48.058;10.486;2023-06-05T06:34:03;17.90;99.90
38458;DHT22;24239;48.058;10.486;2023-06-05T06:36:28;17.70;99.90
38458;DHT22;24239;48.058;10.486;2023-06-05T06:38:55;17.60;99.90
38458;DHT22;24239;48.058;10.486;2023-06-05T06:41:21;17.50;99.90
38458;DHT22;24239;48.058;10.486;2023-06-05T06:43:46;17.40;99.90
38458;DHT22;24239;48.058;10.486;2023-06-05T06:46:12;17.20;99.90
38458;DHT22;24239;48.058;10.486;2023-06-05T06:48:38;17.20;99.90
38458;DHT22;24239;48.058;10.486;2023-06-05T06:51:04;17.30;99.90
38458;DHT22;24239;48.058;10.486;2023-06-05T06:53:32;17.20;99.90
38458;DHT22;24239;48.058;10.486;2023-06-05T06:56:00;17.10;99.90
38458;DHT22;24239;48.058;10.486;2023-06-05T06:58:26;17.30;99.90
38458;DHT22;24239;48.058;10.486;2023-06-05T07:00:52;17.20;99.90
38458;DHT22;24239;48.058;10.486;2023-06-05T07:03:19;17.20;99.90
38458;DHT22;24239;48.058;10.486;2023-06-05T07:05:47;17.20;99.90
38458;DHT22;24239;48.058;10.486;2023-06-05T07:08:18;17.20;99.90
38458;DHT22;24239;48.058;10.486;2023-06-05T07:10:50;17.20;99.90
38458;DHT22;24239;48.058;10.486;2023-06-05T07:13:20;17.20;99.90
38458;DHT22;24239;48.058;10.486;2023-06-05T07:15:51;17.30;99.90
38458;DHT22;24239;48.058;10.486;2023-06-05T07:18:19;17.40;99.90
38458;DHT22;24239;48.058;10.486;2023-06-05T07:20:48;17.40;99.90
38458;DHT22;24239;48.058;10.486;2023-06-05T07:23:19;17.50;99.90
38458;DHT22;24239;48.058;10.486;2023-06-05T07:25:49;17.60;99.90
38458;DHT22;24239;48.058;10.486;2023-06-05T07:28:18;17.80;99.90
38458;DHT22;24239;48.058;10.486;2023-06-05T07:30:43;17.80;99.90
38458;DHT22;24239;48.058;10.486;2023-06-05T07:33:10;17.90;99.90
38458;DHT22;24239;48.058;10.486;2023-06-05T07:35:38;18.10;99.90
38458;DHT22;24239;48.058;10.486;2023-06-05T07:38:07;18.10;99.90
38458;DHT22;24239;48.058;10.486;2023-06-05T07:40:33;18.10;99.90
38458;DHT22;24239;48.058;10.486;2023-06-05T07:43:01;18.20;99.90
38458;DHT22;24239;48.058;10.486;2023-06-05T07:45:29;18.30;99.90
38458;DHT22;24239;48.058;10.486;2023-06-05T07:47:58;18.40;99.90
38458;DHT22;24239;48.058;10.486;2023-06-05T07:50:26;18.40;99.90
38458;DHT22;24239;48.058;10.486;2023-06-05T07:52:54;18.70;99.90
38458;DHT22;24239;48.058;10.486;2023-06-05T07:55:21;18.90;99.90
38458;DHT22;24239;48.058;10.486;2023-06-05T07:57:50;18.90;99.90
38458;DHT22;24239;48.058;10.486;2023-06-05T08:00:21;19.00;99.90
38458;DHT22;24239;48.058;10.486;2023-06-05T08:02:49;18.90;99.90
38458;DHT22;24239;48.058;10.486;2023-06-05T08:05:19;18.90;99.90
38458;DHT22;24239;48.058;10.486;2023-06-05T08:07:46;18.90;99.90
38458;DHT22;24239;48.058;10.486;2023-06-05T08:10:12;18.90;99.90
38458;DHT22;24239;48.058;10.486;2023-06-05T08:12:38;18.90;99.90
38458;DHT22;24239;48.058;10.486;2023-06-05T08:15:05;18.80;99.90
38458;DHT22;24239;48.058;10.486;2023-06-05T08:17:34;18.80;99.90
38458;DHT22;24239;48.058;10.486;2023-06-05T08:20:02;18.80;99.90
38458;DHT22;24239;48.058;10.486;2023-06-05T08:22:32;18.80;99.90
38458;DHT22;24239;48.058;10.486;2023-06-05T08:25:00;18.90;99.90
38458;DHT22;24239;48.058;10.486;2023-06-05T08:27:31;18.90;99.90
38458;DHT22;24239;48.058;10.486;2023-06-05T08:30:00;19.00;99.90
38458;DHT22;24239;48.058;10.486;2023-06-05T08:32:28;19.00;99.90
38458;DHT22;24239;48.058;10.486;2023-06-05T08:35:00;19.30;99.90
38458;DHT22;24239;48.058;10.486;2023-06-05T08:37:28;19.60;99.90
38458;DHT22;24239;48.058;10.486;2023-06-05T08:39:56;19.80;99.90
38458;DHT22;24239;48.058;10.486;2023-06-05T08:42:27;19.70;99.90
38458;DHT22;24239;48.058;10.486;2023-06-05T08:44:57;19.90;99.90
38458;DHT22;24239;48.058;10.486;2023-06-05T08:47:27;20.10;99.90
38458;DHT22;24239;48.058;10.486;2023-06-05T08:49:54;20.10;99.90
38458;DHT22;24239;48.058;10.486;2023-06-05T08:52:23;20.00;99.90
38458;DHT22;24239;48.058;10.486;2023-06-05T08:54:51;19.80;99.90
38458;DHT22;24239;48.058;10.486;2023-06-05T08:57:19;19.90;99.90
38458;DHT22;24239;48.058;10.486;2023-06-05T08:59:46;20.10;99.90
38458;DHT22;24239;48.058;10.486;2023-06-05T09:02:17;20.20;99.90
38458;DHT22;24239;48.058;10.486;2023-06-05T09:04:44;20.30;99.90
38458;DHT22;24239;48.058;10.486;2023-06-05T09:07:12;20.30;99.90
38458;DHT22;24239;48.058;10.486;2023-06-05T09:09:39;20.40;99.90
38458;DHT22;24239;48.058;10.486;2023-06-05T09:12:06;20.50;99.90
38458;DHT22;24239;48.058;10.486;2023-06-05T09:14:32;20.70;99.90
38458;DHT22;24239;48.058;10.486;2023-06-05T09:17:01;20.80;99.90
38458;DHT22;24239;48.058;10.486;2023-06-05T09:19:40;20.70;98.90
38458;DHT22;24239;48.058;10.486;2023-06-05T09:22:11;21.10;99.30
38458;DHT22;24239;48.058;10.486;2023-06-05T09:24:40;20.90;99.00
38458;DHT22;24239;48.058;10.486;2023-06-05T09:27:10;20.70;98.70
38458;DHT22;24239;48.058;10.486;2023-06-05T09:29:38;20.90;99.20
38458;DHT22;24239;48.058;10.486;2023-06-05T09:32:10;21.00;98.70
38458;DHT22;24239;48.058;10.486;2023-06-05T09:34:42;21.20;98.00
38458;DHT22;24239;48.058;10.486;2023-06-05T09:37:08;21.50;98.30
38458;DHT22;24239;48.058;10.486;2023-06-05T09:39:35;21.40;98.00
38458;DHT22;24239;48.058;10.486;2023-06-05T09:42:01;21.20;97.70
38458;DHT22;24239;48.058;10.486;2023-06-05T09:44:29;21.00;97.70
38458;DHT22;24239;48.058;10.486;2023-06-05T09:49:25;20.80;98.50
38458;DHT22;24239;48.058;10.486;2023-06-05T09:51:51;20.70;97.80
38458;DHT22;24239;48.058;10.486;2023-06-05T09:54:21;20.70;97.40
38458;DHT22;24239;48.058;10.486;2023-06-05T09:56:49;20.70;97.50
38458;DHT22;24239;48.058;10.486;2023-06-05T09:59:20;20.70;97.40
38458;DHT22;24239;48.058;10.486;2023-06-05T10:01:51;20.80;97.80
38458;DHT22;24239;48.058;10.486;2023-06-05T10:04:20;20.80;97.70
38458;DHT22;24239;48.058;10.486;2023-06-05T10:06:51;20.90;97.80
38458;DHT22;24239;48.058;10.486;2023-06-05T10:09:19;20.80;97.80
38458;DHT22;24239;48.058;10.486;2023-06-05T10:11:53;20.60;98.10
38458;DHT22;24239;48.058;10.486;2023-06-05T10:14:23;20.70;98.10
38458;DHT22;24239;48.058;10.486;2023-06-05T10:16:50;20.80;97.60
38458;DHT22;24239;48.058;10.486;2023-06-05T10:19:19;20.80;97.20
38458;DHT22;24239;48.058;10.486;2023-06-05T10:21:47;21.00;96.90
38458;DHT22;24239;48.058;10.486;2023-06-05T10:24:24;21.10;97.60
38458;DHT22;24239;48.058;10.486;2023-06-05T10:31:59;21.30;95.80
38458;DHT22;24239;48.058;10.486;2023-06-05T10:34:40;21.30;95.10
38458;DHT22;24239;48.058;10.486;2023-06-05T10:39:49;21.40;93.80
38458;DHT22;24239;48.058;10.486;2023-06-05T10:42:25;21.60;94.20
38458;DHT22;24239;48.058;10.486;2023-06-05T10:44:52;21.80;93.40
38458;DHT22;24239;48.058;10.486;2023-06-05T10:52:44;22.00;91.90
38458;DHT22;24239;48.058;10.486;2023-06-05T10:55:11;22.20;92.10
38458;DHT22;24239;48.058;10.486;2023-06-05T11:00:21;22.30;91.60
38458;DHT22;24239;48.058;10.486;2023-06-05T11:02:48;22.70;92.60
38458;DHT22;24239;48.058;10.486;2023-06-05T11:05:17;22.90;92.60
38458;DHT22;24239;48.058;10.486;2023-06-05T11:07:45;22.70;91.40
38458;DHT22;24239;48.058;10.486;2023-06-05T11:17:50;22.70;93.00
38458;DHT22;24239;48.058;10.486;2023-06-05T11:20:48;23.00;92.30
38458;DHT22;24239;48.058;10.486;2023-06-05T11:25:33;23.10;91.70
38458;DHT22;24239;48.058;10.486;2023-06-05T11:28:02;22.80;90.90
38458;DHT22;24239;48.058;10.486;2023-06-05T11:30:31;22.80;91.20
38458;DHT22;24239;48.058;10.486;2023-06-05T11:33:18;22.80;91.50
38458;DHT22;24239;48.058;10.486;2023-06-05T11:35:47;22.80;91.20
38458;DHT22;24239;48.058;10.486;2023-06-05T11:40:59;22.70;91.10
38458;DHT22;24239;48.058;10.486;2023-06-05T11:43:27;22.80;90.90
38458;DHT22;24239;48.058;10.486;2023-06-05T11:45:57;22.50;90.80
38458;DHT22;24239;48.058;10.486;2023-06-05T11:48:24;22.80;90.20
38458;DHT22;24239;48.058;10.486;2023-06-05T11:50:55;22.70;90.20
38458;DHT22;24239;48.058;10.486;2023-06-05T11:53:23;22.80;89.60
38458;DHT22;24239;48.058;10.486;2023-06-05T11:55:52;23.10;90.60
38458;DHT22;24239;48.058;10.486;2023-06-05T11:58:22;23.50;90.70
38458;DHT22;24239;48.058;10.486;2023-06-05T12:00:50;23.60;89.80
38458;DHT22;24239;48.058;10.486;2023-06-05T12:03:20;23.50;90.40
38458;DHT22;24239;48.058;10.486;2023-06-05T12:05:49;23.40;89.70
38458;DHT22;24239;48.058;10.486;2023-06-05T12:08:25;23.40;90.20
38458;DHT22;24239;48.058;10.486;2023-06-05T12:10:54;23.40;89.80
38458;DHT22;24239;48.058;10.486;2023-06-05T12:13:22;23.30;89.80
38458;DHT22;24239;48.058;10.486;2023-06-05T12:15:57;23.10;89.50
38458;DHT22;24239;48.058;10.486;2023-06-05T12:18:32;23.00;89.60
38458;DHT22;24239;48.058;10.486;2023-06-05T12:21:02;22.80;89.00
38458;DHT22;24239;48.058;10.486;2023-06-05T12:23:30;22.60;89.00
38458;DHT22;24239;48.058;10.486;2023-06-05T12:26:03;22.40;88.10
38458;DHT22;24239;48.058;10.486;2023-06-05T12:28:31;22.50;88.10
38458;DHT22;24239;48.058;10.486;2023-06-05T12:30:57;22.80;90.50
38458;DHT22;24239;48.058;10.486;2023-06-05T12:33:26;23.10;88.30
38458;DHT22;24239;48.058;10.486;2023-06-05T12:36:02;23.30;88.10
38458;DHT22;24239;48.058;10.486;2023-06-05T12:38:29;23.10;86.70
38458;DHT22;24239;48.058;10.486;2023-06-05T12:40:56;23.00;86.20
38458;DHT22;24239;48.058;10.486;2023-06-05T12:43:24;22.80;85.90
38458;DHT22;24239;48.058;10.486;2023-06-05T12:45:52;22.80;86.40
38458;DHT22;24239;48.058;10.486;2023-06-05T12:48:19;22.80;86.80
38458;DHT22;24239;48.058;10.486;2023-06-05T12:50:49;23.10;85.70
38458;DHT22;24239;48.058;10.486;2023-06-05T12:53:17;23.40;85.60
38458;DHT22;24239;48.058;10.486;2023-06-05T12:55:44;23.70;85.20
38458;DHT22;24239;48.058;10.486;2023-06-05T12:58:13;23.70;84.90
38458;DHT22;24239;48.058;10.486;2023-06-05T13:00:41;23.60;84.50
38458;DHT22;24239;48.058;10.486;2023-06-05T13:03:11;23.70;84.70
38458;DHT22;24239;48.058;10.486;2023-06-05T13:05:39;23.80;84.60
38458;DHT22;24239;48.058;10.486;2023-06-05T13:08:06;23.80;85.10
38458;DHT22;24239;48.058;10.486;2023-06-05T13:10:32;23.70;84.10
38458;DHT22;24239;48.058;10.486;2023-06-05T13:13:00;23.70;83.90
38458;DHT22;24239;48.058;10.486;2023-06-05T13:15:33;23.70;83.50
38458;DHT22;24239;48.058;10.486;2023-06-05T13:18:02;23.50;82.80
38458;DHT22;24239;48.058;10.486;2023-06-05T13:20:30;23.60;84.50
38458;DHT22;24239;48.058;10.486;2023-06-05T13:22:58;23.40;82.00
38458;DHT22;24239;48.058;10.486;2023-06-05T13:25:24;23.40;81.90
38458;DHT22;24239;48.058;10.486;2023-06-05T13:27:50;23.40;82.40
38458;DHT22;24239;48.058;10.486;2023-06-05T13:30:18;23.50;83.00
38458;DHT22;24239;48.058;10.486;2023-06-05T13:32:55;23.70;81.70
38458;DHT22;24239;48.058;10.486;2023-06-05T13:35:24;23.90;80.40
38458;DHT22;24239;48.058;10.486;2023-06-05T13:37:51;24.10;79.00
38458;DHT22;24239;48.058;10.486;2023-06-05T13:40:21;24.10;79.00
38458;DHT22;24239;48.058;10.486;2023-06-05T13:42:52;24.30;80.40
38458;DHT22;24239;48.058;10.486;2023-06-05T13:45:20;24.40;78.40
38458;DHT22;24239;48.058;10.486;2023-06-05T13:47:49;24.30;78.00
38458;DHT22;24239;48.058;10.486;2023-06-05T13:50:17;24.10;79.20
38458;DHT22;24239;48.058;10.486;2023-06-05T13:52:48;23.70;79.60
38458;DHT22;24239;48.058;10.486;2023-06-05T13:55:16;23.70;79.80
38458;DHT22;24239;48.058;10.486;2023-06-05T13:57:43;23.80;79.80
38458;DHT22;24239;48.058;10.486;2023-06-05T14:00:10;23.80;81.40
38458;DHT22;24239;48.058;10.486;2023-06-05T14:02:36;24.10;81.40
38458;DHT22;24239;48.058;10.486;2023-06-05T14:05:05;24.10;79.40
38458;DHT22;24239;48.058;10.486;2023-06-05T14:07:32;24.10;79.90
38458;DHT22;24239;48.058;10.486;2023-06-05T14:10:00;23.90;80.10
38458;DHT22;24239;48.058;10.486;2023-06-05T14:12:28;23.60;78.70
38458;DHT22;24239;48.058;10.486;2023-06-05T14:14:56;23.60;78.80
38458;DHT22;24239;48.058;10.486;2023-06-05T14:17:22;23.70;78.50
38458;DHT22;24239;48.058;10.486;2023-06-05T14:19:53;23.90;78.40
38458;DHT22;24239;48.058;10.486;2023-06-05T14:22:21;24.10;79.80
38458;DHT22;24239;48.058;10.486;2023-06-05T14:24:48;24.20;78.00
38458;DHT22;24239;48.058;10.486;2023-06-05T14:27:14;24.30;78.60
38458;DHT22;24239;48.058;10.486;2023-06-05T14:29:44;23.90;77.50
38458;DHT22;24239;48.058;10.486;2023-06-05T14:32:15;23.80;79.10
38458;DHT22;24239;48.058;10.486;2023-06-05T14:34:42;23.80;78.10
38458;DHT22;24239;48.058;10.486;2023-06-05T14:37:10;23.80;79.60
38458;DHT22;24239;48.058;10.486;2023-06-05T14:39:37;23.80;78.50
38458;DHT22;24239;48.058;10.486;2023-06-05T14:42:05;23.90;78.70
38458;DHT22;24239;48.058;10.486;2023-06-05T14:44:33;23.90;79.70
38458;DHT22;24239;48.058;10.486;2023-06-05T14:47:02;23.90;78.70
38458;DHT22;24239;48.058;10.486;2023-06-05T14:49:31;24.00;78.00
38458;DHT22;24239;48.058;10.486;2023-06-05T14:51:59;24.00;78.40
38458;DHT22;24239;48.058;10.486;2023-06-05T14:54:27;24.00;77.60
38458;DHT22;24239;48.058;10.486;2023-06-05T14:56:55;23.80;77.30
38458;DHT22;24239;48.058;10.486;2023-06-05T14:59:23;23.80;77.80
38458;DHT22;24239;48.058;10.486;2023-06-05T15:01:50;23.90;76.90
38458;DHT22;24239;48.058;10.486;2023-06-05T15:04:17;23.90;78.30
38458;DHT22;24239;48.058;10.486;2023-06-05T15:06:46;23.80;78.90
38458;DHT22;24239;48.058;10.486;2023-06-05T15:09:16;23.70;77.30
38458;DHT22;24239;48.058;10.486;2023-06-05T15:11:44;23.60;78.50
38458;DHT22;24239;48.058;10.486;2023-06-05T15:14:11;23.70;77.90
38458;DHT22;24239;48.058;10.486;2023-06-05T15:16:37;23.90;77.80
38458;DHT22;24239;48.058;10.486;2023-06-05T15:19:03;23.70;76.10
38458;DHT22;24239;48.058;10.486;2023-06-05T15:21:31;23.90;77.40
38458;DHT22;24239;48.058;10.486;2023-06-05T15:23:57;24.10;75.80
38458;DHT22;24239;48.058;10.486;2023-06-05T15:26:23;24.10;75.90
38458;DHT22;24239;48.058;10.486;2023-06-05T15:28:50;24.30;76.90
38458;DHT22;24239;48.058;10.486;2023-06-05T15:31:17;24.70;77.70
38458;DHT22;24239;48.058;10.486;2023-06-05T15:33:43;24.40;76.20
38458;DHT22;24239;48.058;10.486;2023-06-05T15:36:10;24.50;76.90
38458;DHT22;24239;48.058;10.486;2023-06-05T15:38:38;24.70;76.30
38458;DHT22;24239;48.058;10.486;2023-06-05T15:41:05;24.50;76.30
38458;DHT22;24239;48.058;10.486;2023-06-05T15:43:31;24.40;76.80
38458;DHT22;24239;48.058;10.486;2023-06-05T15:45:57;24.10;76.90
38458;DHT22;24239;48.058;10.486;2023-06-05T15:48:22;23.70;77.50
38458;DHT22;24239;48.058;10.486;2023-06-05T15:50:53;23.60;77.80
38458;DHT22;24239;48.058;10.486;2023-06-05T15:53:22;23.50;77.70
38458;DHT22;24239;48.058;10.486;2023-06-05T15:55:51;23.50;78.00
38458;DHT22;24239;48.058;10.486;2023-06-05T15:58:19;23.50;78.40